Time;durP1;ratioP1;P1;durP2;ratioP2;P2;SDS_P1;SDS_P2;PMS_P1;PMS_P2;Temp;Humidity;BMP_temperature;BMP_pressure;BME280_temperature;BME280_humidity;BME280_pressure;Samples;Min_cycle;Max_cycle;Signal;HPM_P1;HPM_P2
2022/01/04 00:01:04;;;;;;;8.15;4.07;;;;;;;5.90;96.07;62609.81;5105564;28;20198;-77
2022/01/04 00:03:31;;;;;;;4.35;3.17;;;;;;;5.94;96.34;62609.38;5106077;28;20245;-77
2022/01/04 00:05:58;;;;;;;3.65;3.33;;;;;;;6.01;95.38;62621.66;5105349;28;20202;-77
2022/01/04 00:08:26;;;;;;;6.07;5.38;;;;;;;6.04;95.19;62619.19;5097550;28;20249;-76
2022/01/04 00:11:05;;;;;;;3.97;3.17;;;;;;;6.02;95.51;62619.63;5104874;28;20283;-77
2022/01/04 00:13:34;;;;;;;4.65;3.58;;;;;;;5.98;96.20;62613.00;5105738;28;20224;-78
2022/01/04 00:16:03;;;;;;;4.18;3.53;;;;;;;5.96;96.39;62613.97;5106247;28;20196;-78
2022/01/04 00:18:29;;;;;;;4.78;3.85;;;;;;;5.94;96.94;62613.94;5105616;28;20425;-77
2022/01/04 00:20:56;;;;;;;3.63;3.33;;;;;;;6.03;95.77;62618.66;5105556;28;20387;-77
2022/01/04 00:23:23;;;;;;;5.25;3.63;;;;;;;6.05;95.71;62622.72;5105415;28;20281;-78
2022/01/04 00:25:50;;;;;;;3.67;3.03;;;;;;;5.99;95.77;62616.56;5101049;28;20208;-77
2022/01/04 00:28:17;;;;;;;4.45;3.03;;;;;;;5.92;96.45;62606.81;5097340;28;20404;-77
2022/01/04 00:30:45;;;;;;;3.60;2.95;;;;;;;5.87;96.83;62604.19;5104987;28;20383;-77
2022/01/04 00:33:14;;;;;;;8.75;3.08;;;;;;;5.83;97.13;62598.56;5104771;28;20436;-76
2022/01/04 00:35:41;;;;;;;3.75;2.63;;;;;;;5.84;96.82;62599.06;5104535;28;20406;-78
2022/01/04 00:38:08;;;;;;;5.28;3.47;;;;;;;5.80;96.87;62594.94;5093911;28;20224;-76
2022/01/04 00:40:36;;;;;;;3.25;3.00;;;;;;;5.68;97.12;62585.59;5104956;28;20192;-77
2022/01/04 00:43:04;;;;;;;3.80;3.00;;;;;;;5.69;97.20;62581.56;5105310;28;20196;-76
2022/01/04 00:45:32;;;;;;;2.70;2.50;;;;;;;5.65;97.35;62580.00;5104244;28;20188;-76
2022/01/04 00:50:45;;;;;;;3.00;2.80;;;;;;;5.71;96.90;62585.66;5084600;28;20226;-77
2022/01/04 00:53:13;;;;;;;3.03;2.75;;;;;;;5.64;97.12;62581.47;5085202;28;20246;-76
2022/01/04 00:55:40;;;;;;;2.97;2.58;;;;;;;5.57;97.37;62571.25;5094458;28;20192;-76
2022/01/04 00:58:07;;;;;;;4.50;2.50;;;;;;;5.45;98.12;62556.84;5106720;28;20228;-77
2022/01/04 01:00:34;;;;;;;2.50;2.30;;;;;;;5.40;98.77;62551.22;5100480;28;20201;-76
2022/01/04 01:03:02;;;;;;;3.05;2.53;;;;;;;5.39;99.08;62547.63;5096315;28;20196;-76
2022/01/04 01:05:29;;;;;;;2.35;2.10;;;;;;;5.39;99.31;62555.22;5093552;28;20205;-75
2022/01/04 01:07:57;;;;;;;2.40;2.22;;;;;;;5.46;99.48;62560.41;5100250;28;20203;-76
2022/01/04 01:10:40;;;;;;;3.40;2.83;;;;;;;5.46;98.90;62562.44;5110086;28;20218;-76
2022/01/04 01:13:07;;;;;;;6.45;2.95;;;;;;;5.39;99.25;62555.72;5105519;28;20200;-76
2022/01/04 01:15:36;;;;;;;2.65;2.45;;;;;;;5.41;99.55;62555.28;5104218;28;20241;-76
2022/01/04 01:18:04;;;;;;;2.72;2.53;;;;;;;5.33;100.00;62549.53;5104117;28;20492;-76
2022/01/04 01:20:31;;;;;;;9.07;2.80;;;;;;;5.32;100.00;62546.00;5103355;28;20206;-76
2022/01/04 01:22:58;;;;;;;4.00;2.70;;;;;;;5.46;99.00;62562.44;5103572;28;20204;-77
2022/01/04 01:25:25;;;;;;;2.50;2.30;;;;;;;5.42;99.28;62555.78;5103477;28;20246;-76
2022/01/04 01:27:52;;;;;;;3.00;2.20;;;;;;;5.40;99.17;62554.22;5104471;28;20208;-76
2022/01/04 01:30:19;;;;;;;2.83;2.63;;;;;;;5.54;98.41;62570.69;5099774;28;20581;-76
2022/01/04 01:32:45;;;;;;;3.22;2.70;;;;;;;5.51;98.29;62567.56;5104297;28;20228;-77
2022/01/04 01:35:14;;;;;;;3.33;2.30;;;;;;;5.49;98.41;62560.47;5104394;28;20228;-76
2022/01/04 01:37:40;;;;;;;2.90;2.63;;;;;;;5.47;98.13;62561.44;5101235;28;20234;-76
2022/01/04 01:40:08;;;;;;;4.70;2.53;;;;;;;5.44;98.14;62555.31;5103187;28;20228;-79
2022/01/04 01:42:34;;;;;;;2.53;2.40;;;;;;;5.46;98.04;62557.91;5102637;28;20230;-77
2022/01/04 01:45:01;;;;;;;2.10;1.95;;;;;;;5.50;97.86;62564.56;5104339;28;20291;-77
2022/01/04 01:47:28;;;;;;;2.30;2.15;;;;;;;5.49;97.82;62563.00;5104300;28;20297;-76
2022/01/04 01:49:55;;;;;;;2.50;2.30;;;;;;;5.41;98.33;62555.28;5102830;28;20228;-76
2022/01/04 01:52:23;;;;;;;2.50;2.20;;;;;;;5.32;98.81;62545.47;5103945;28;20195;-76
2022/01/04 01:54:50;;;;;;;2.28;2.17;;;;;;;5.26;98.67;62536.78;5103642;28;20219;-77
2022/01/04 01:57:16;;;;;;;2.25;2.15;;;;;;;5.24;98.67;62539.75;5103276;28;20539;-77
2022/01/04 01:59:43;;;;;;;2.45;2.30;;;;;;;5.19;98.77;62529.56;5101899;28;20223;-75
2022/01/04 02:02:10;;;;;;;2.90;2.70;;;;;;;5.10;98.87;62523.34;5102854;28;20200;-77
2022/01/04 02:04:37;;;;;;;3.42;3.13;;;;;;;5.05;99.32;62518.19;5103634;28;20216;-78
2022/01/04 02:07:05;;;;;;;2.90;2.50;;;;;;;5.01;99.49;62516.59;5103085;28;20200;-77
2022/01/04 02:09:37;;;;;;;6.10;3.38;;;;;;;4.93;99.82;62507.84;5104151;28;20216;-77
2022/01/04 02:12:05;;;;;;;3.83;3.42;;;;;;;4.93;100.00;62502.78;5104020;28;20196;-76
2022/01/04 02:14:32;;;;;;;5.07;4.05;;;;;;;4.84;100.00;62496.56;5103835;28;20413;-77
2022/01/04 02:16:59;;;;;;;5.15;4.22;;;;;;;4.78;100.00;62490.38;5101913;28;20520;-78
2022/01/04 02:19:26;;;;;;;4.45;3.88;;;;;;;4.75;100.00;62492.34;5100284;28;20463;-77
2022/01/04 02:21:54;;;;;;;6.90;3.90;;;;;;;4.74;100.00;62489.31;5095018;28;20214;-77
2022/01/04 02:24:22;;;;;;;4.97;3.53;;;;;;;4.71;100.00;62483.69;5103717;28;20216;-77
2022/01/04 02:26:50;;;;;;;4.03;2.28;;;;;;;4.64;100.00;62473.47;5102228;28;20212;-78
2022/01/04 02:29:17;;;;;;;3.03;2.83;;;;;;;4.58;100.00;62474.84;5102850;28;20578;-77
2022/01/04 02:31:44;;;;;;;6.88;2.15;;;;;;;4.46;100.00;62457.97;5102795;28;20248;-77
2022/01/04 02:34:10;;;;;;;3.25;2.58;;;;;;;4.42;100.00;62451.31;5103108;28;20222;-77
2022/01/04 02:36:40;;;;;;;3.17;2.08;;;;;;;4.38;100.00;62454.75;5101781;28;20226;-77
2022/01/04 02:39:08;;;;;;;2.30;2.20;;;;;;;4.31;100.00;62442.53;5106740;28;20244;-78
2022/01/04 02:41:35;;;;;;;3.90;2.70;;;;;;;4.27;100.00;62440.41;5106343;28;20203;-77
2022/01/04 02:44:02;;;;;;;3.13;2.72;;;;;;;4.35;100.00;62449.16;5105460;28;20357;-77
2022/01/04 02:46:29;;;;;;;2.63;2.28;;;;;;;4.37;100.00;62448.19;5106863;28;20204;-77
2022/01/04 02:48:56;;;;;;;5.05;2.20;;;;;;;4.42;100.00;62451.31;5106843;28;20223;-76
2022/01/04 02:51:23;;;;;;;2.15;2.05;;;;;;;4.39;100.00;62447.72;5106419;28;20234;-76
2022/01/04 02:53:50;;;;;;;2.55;1.95;;;;;;;4.48;100.00;62462.03;5106361;28;20382;-76
2022/01/04 02:56:18;;;;;;;2.67;2.47;;;;;;;4.51;100.00;62462.59;5107291;28;20196;-76
2022/01/04 02:58:45;;;;;;;2.25;2.10;;;;;;;4.62;100.00;62474.44;5107023;28;20430;-76
2022/01/04 03:01:12;;;;;;;2.42;2.00;;;;;;;4.69;100.00;62486.19;5106458;28;20199;-76
2022/01/04 03:03:39;;;;;;;3.00;2.70;;;;;;;4.62;100.00;62479.47;5105749;28;20457;-76
2022/01/04 03:06:06;;;;;;;4.40;2.60;;;;;;;4.77;100.00;62489.34;5106665;28;20208;-76
2022/01/04 03:08:32;;;;;;;2.53;2.33;;;;;;;4.71;100.00;62486.22;5106767;28;20220;-76
2022/01/04 03:10:59;;;;;;;3.10;2.90;;;;;;;4.63;100.00;62477.47;5105514;28;20395;-76
2022/01/04 03:13:27;;;;;;;2.47;2.28;;;;;;;4.62;100.00;62476.94;5106163;28;20250;-77
2022/01/04 03:15:54;;;;;;;3.22;2.45;;;;;;;4.58;100.00;62472.84;5105258;28;20222;-77
2022/01/04 03:18:21;;;;;;;4.03;2.60;;;;;;;4.55;100.00;62472.28;5106361;28;20216;-77
2022/01/04 03:20:47;;;;;;;2.88;2.45;;;;;;;4.53;100.00;62467.69;5106559;28;20204;-77
2022/01/04 03:23:14;;;;;;;2.70;2.40;;;;;;;4.54;100.00;62468.19;5104985;28;20218;-76
2022/01/04 03:25:41;;;;;;;2.35;2.25;;;;;;;4.54;100.00;62468.19;5106557;28;20254;-76
2022/01/04 03:28:08;;;;;;;2.28;2.08;;;;;;;4.66;100.00;62478.03;5104081;28;20207;-76
2022/01/04 03:30:37;;;;;;;3.38;2.20;;;;;;;4.54;100.00;62465.69;5106917;28;20208;-76
2022/01/04 03:33:03;;;;;;;1.90;1.80;;;;;;;4.54;100.00;62468.19;5109655;28;20200;-76
2022/01/04 03:35:33;;;;;;;1.85;1.75;;;;;;;4.47;100.00;62459.00;5118135;28;20210;-77
2022/01/04 03:38:00;;;;;;;2.47;2.38;;;;;;;4.50;100.00;62464.59;5117465;28;20204;-76
2022/01/04 03:40:27;;;;;;;2.72;2.20;;;;;;;4.52;100.00;62466.66;5116759;28;20227;-76
2022/01/04 03:42:54;;;;;;;1.80;1.70;;;;;;;4.46;100.00;62455.44;5116502;28;20211;-75
2022/01/04 03:45:20;;;;;;;2.17;1.88;;;;;;;4.51;100.00;62465.13;5118787;28;20195;-76
2022/01/04 03:47:48;;;;;;;3.20;1.75;;;;;;;4.56;100.00;62470.25;5117935;28;20277;-77
2022/01/04 03:50:15;;;;;;;3.42;1.52;;;;;;;4.47;100.00;62453.94;5118114;28;20240;-76
2022/01/04 03:52:42;;;;;;;1.90;1.80;;;;;;;4.37;100.00;62453.22;5106496;28;20238;-76
2022/01/04 03:55:10;;;;;;;4.13;1.58;;;;;;;4.36;100.00;62449.69;5106982;28;20216;-77
2022/01/04 03:57:37;;;;;;;1.30;1.30;;;;;;;4.32;99.78;62446.09;5106391;28;20219;-77
2022/01/04 04:00:06;;;;;;;1.70;1.63;;;;;;;4.43;99.96;62454.88;5105528;28;20235;-77
2022/01/04 04:02:33;;;;;;;2.33;1.75;;;;;;;4.42;100.00;62455.84;5105398;28;20200;-77
2022/01/04 04:05:01;;;;;;;1.85;1.75;;;;;;;4.47;100.00;62469.06;5104350;28;20225;-75
2022/01/04 04:07:28;;;;;;;2.13;2.00;;;;;;;4.49;99.70;62463.56;5105223;28;20254;-76
2022/01/04 04:09:54;;;;;;;1.65;1.55;;;;;;;4.52;99.20;62461.63;5105545;28;20216;-76
2022/01/04 04:12:23;;;;;;;1.52;1.42;;;;;;;4.43;99.00;62457.41;5105445;28;20208;-77
2022/01/04 04:14:50;;;;;;;1.90;1.80;;;;;;;4.38;99.03;62446.69;5104873;28;20253;-77
2022/01/04 04:17:17;;;;;;;1.58;1.48;;;;;;;4.34;98.97;62448.16;5085095;28;20197;-76
2022/01/04 04:19:43;;;;;;;2.97;1.30;;;;;;;4.33;98.79;62449.13;5085114;28;20232;-77
2022/01/04 04:22:12;;;;;;;1.60;1.50;;;;;;;4.35;98.66;62446.66;5093894;28;20204;-76
2022/01/04 04:24:39;;;;;;;2.15;1.60;;;;;;;4.19;98.41;62429.66;5104261;28;20243;-76
2022/01/04 04:27:06;;;;;;;2.05;1.80;;;;;;;4.03;99.07;62413.22;5104947;28;20257;-76
2022/01/04 04:29:33;;;;;;;4.43;2.80;;;;;;;3.97;99.43;62407.53;5105383;28;20269;-76
2022/01/04 04:32:00;;;;;;;4.47;2.20;;;;;;;3.93;99.62;62405.44;5104555;28;20230;-77
2022/01/04 04:34:27;;;;;;;2.55;2.35;;;;;;;3.87;100.00;62402.28;5104091;28;20416;-77
2022/01/04 04:36:54;;;;;;;4.38;2.92;;;;;;;3.86;100.00;62400.75;5104306;28;20196;-76
2022/01/04 04:39:22;;;;;;;103.72;50.40;;;;;;;3.75;100.00;62389.44;5104229;28;20231;-78
2022/01/04 04:41:49;;;;;;;18.90;9.05;;;;;;;3.73;100.00;62385.38;5103799;28;20200;-77
2022/01/04 04:44:16;;;;;;;18.33;9.18;;;;;;;3.59;100.00;62370.47;5104208;28;20449;-77
2022/01/04 04:46:43;;;;;;;13.90;8.05;;;;;;;3.62;100.00;62371.56;5093766;28;20562;-78
2022/01/04 04:49:10;;;;;;;10.23;5.88;;;;;;;3.61;100.00;62370.53;5102905;28;20219;-77
2022/01/04 04:51:37;;;;;;;6.95;5.30;;;;;;;3.53;100.00;62362.28;5103066;28;20378;-76
2022/01/04 04:54:04;;;;;;;5.93;3.83;;;;;;;3.52;100.00;62361.25;5104544;28;20262;-76
2022/01/04 04:56:34;;;;;;;3.72;2.72;;;;;;;3.46;100.00;62355.09;5104760;28;20441;-77
2022/01/04 04:59:01;;;;;;;2.83;2.17;;;;;;;3.45;100.00;62356.59;5103141;28;20240;-76
2022/01/04 05:01:27;;;;;;;2.45;2.25;;;;;;;3.47;100.00;62356.13;5105861;28;20207;-77
2022/01/04 05:03:54;;;;;;;3.85;2.22;;;;;;;3.38;100.00;62346.88;5107970;28;20258;-77
2022/01/04 05:06:21;;;;;;;2.08;1.98;;;;;;;3.38;100.00;62349.41;5107796;28;20241;-76
2022/01/04 05:08:48;;;;;;;3.45;2.40;;;;;;;3.36;100.00;62342.81;5100139;28;20224;-76
2022/01/04 05:11:14;;;;;;;3.22;2.20;;;;;;;3.41;100.00;62352.47;5104750;28;20196;-77
2022/01/04 05:13:43;;;;;;;2.60;2.42;;;;;;;3.39;100.00;62350.94;5101460;28;20232;-77
2022/01/04 05:16:10;;;;;;;3.55;3.00;;;;;;;3.32;100.00;62343.75;5104468;28;20244;-76
2022/01/04 05:18:36;;;;;;;3.25;2.95;;;;;;;3.40;100.00;62351.44;5104653;28;20269;-77
2022/01/04 05:21:04;;;;;;;4.90;3.53;;;;;;;3.41;100.00;62349.97;5104086;28;20231;-76
2022/01/04 05:23:31;;;;;;;4.07;2.60;;;;;;;3.45;100.00;62352.06;5097876;28;20217;-76
2022/01/04 05:25:58;;;;;;;4.65;3.20;;;;;;;3.44;100.00;62353.56;5095393;28;20203;-77
2022/01/04 05:28:25;;;;;;;3.72;2.72;;;;;;;3.50;100.00;62357.19;5104073;28;20216;-77
2022/01/04 05:30:53;;;;;;;5.35;2.80;;;;;;;3.61;100.00;62375.56;5103835;28;20200;-79
2022/01/04 05:33:20;;;;;;;3.15;2.90;;;;;;;3.64;100.00;62376.13;5101481;28;20219;-77
2022/01/04 05:35:47;;;;;;;3.65;3.28;;;;;;;3.62;100.00;62374.06;5105247;28;20203;-77
2022/01/04 05:38:14;;;;;;;3.47;3.17;;;;;;;3.59;100.00;62367.97;5104283;28;20432;-78
2022/01/04 05:40:42;;;;;;;3.17;2.90;;;;;;;3.58;100.00;62367.44;5101635;28;20227;-77
2022/01/04 05:43:09;;;;;;;3.25;2.92;;;;;;;3.65;100.00;62374.13;5103926;28;20207;-77
2022/01/04 05:45:36;;;;;;;3.20;2.90;;;;;;;3.65;100.00;62374.13;5084633;28;20192;-77
2022/01/04 05:48:05;;;;;;;4.10;2.60;;;;;;;3.69;100.00;62383.28;5083410;28;20197;-77
2022/01/04 05:50:34;;;;;;;2.95;2.35;;;;;;;3.70;100.00;62381.78;5091410;28;20457;-77
2022/01/04 05:53:01;;;;;;;2.47;2.25;;;;;;;3.71;100.00;62380.81;5102485;28;20239;-76
2022/01/04 05:55:28;;;;;;;4.07;2.40;;;;;;;3.79;100.00;62389.03;5103770;28;20200;-77
2022/01/04 05:57:55;;;;;;;2.15;2.05;;;;;;;3.82;100.00;62391.59;5102977;28;20207;-77
2022/01/04 06:00:21;;;;;;;4.22;1.77;;;;;;;3.79;100.00;62389.03;5097870;28;20235;-77
2022/01/04 06:02:48;;;;;;;5.63;2.25;;;;;;;3.90;98.93;62402.34;5103856;28;20420;-77
2022/01/04 06:05:16;;;;;;;2.20;2.10;;;;;;;3.85;98.95;62395.19;5104119;28;20212;-76
2022/01/04 06:07:43;;;;;;;1.85;1.75;;;;;;;3.90;98.87;62399.84;5095692;28;20204;-76
2022/01/04 06:10:11;;;;;;;3.25;2.20;;;;;;;3.91;98.89;62400.88;5101480;28;20227;-77
2022/01/04 06:15:23;;;;;;;2.70;2.42;;;;;;;4.11;98.12;62423.94;5099760;28;20495;-76
2022/01/04 06:17:50;;;;;;;3.83;2.13;;;;;;;4.15;97.94;62423.56;5116888;28;20222;-77
2022/01/04 06:20:21;;;;;;;2.90;2.33;;;;;;;4.25;97.79;62438.88;5115704;28;20238;-76
2022/01/04 06:22:48;;;;;;;2.22;1.95;;;;;;;4.41;96.75;62452.31;5104966;28;20262;-77
2022/01/04 06:25:17;;;;;;;2.03;1.88;;;;;;;4.44;96.08;62455.91;5108309;28;20216;-77
2022/01/04 06:27:45;;;;;;;3.83;1.65;;;;;;;4.52;95.56;62463.63;5103571;28;20196;-77
2022/01/04 06:30:15;;;;;;;2.30;2.08;;;;;;;4.45;95.21;62456.44;5107899;28;20216;-77
2022/01/04 06:32:43;;;;;;;2.30;2.10;;;;;;;4.40;95.52;62451.28;5107839;28;20203;-77
2022/01/04 06:35:10;;;;;;;2.20;2.03;;;;;;;4.41;96.37;62455.34;5101164;28;20223;-77
2022/01/04 06:37:39;;;;;;;3.53;2.08;;;;;;;4.49;96.58;62458.53;5098084;28;20212;-77
2022/01/04 06:40:06;;;;;;;6.80;2.13;;;;;;;4.51;96.41;62463.13;5105093;28;20231;-77
2022/01/04 06:42:33;;;;;;;2.60;2.40;;;;;;;4.47;96.64;62458.47;5105915;28;20196;-78
2022/01/04 06:45:00;;;;;;;2.08;1.95;;;;;;;4.49;96.36;62463.56;5105297;28;20224;-77
2022/01/04 06:47:27;;;;;;;4.47;3.08;;;;;;;4.52;96.61;62461.63;5107823;28;20200;-77
2022/01/04 06:49:54;;;;;;;5.40;4.80;;;;;;;4.58;96.72;62472.84;5105490;28;20216;-76
2022/01/04 06:52:21;;;;;;;9.45;5.10;;;;;;;4.60;98.22;62467.34;5103947;28;20496;-76
2022/01/04 06:54:49;;;;;;;6.50;5.22;;;;;;;4.59;98.33;62473.88;5106905;28;20212;-77
2022/01/04 06:57:16;;;;;;;8.93;5.68;;;;;;;4.58;99.22;62472.31;5107500;28;20246;-77
2022/01/04 06:59:43;;;;;;;12.80;8.93;;;;;;;4.61;100.00;62475.41;5088948;28;20228;-77
2022/01/04 07:02:10;;;;;;;12.13;8.80;;;;;;;4.59;100.00;62468.31;5098234;28;20237;-75
2022/01/04 07:04:37;;;;;;;14.18;9.50;;;;;;;4.53;100.00;62467.69;5107263;28;20291;-75
2022/01/04 07:07:04;;;;;;;17.70;10.30;;;;;;;4.59;100.00;62473.88;5106729;28;20200;-76
2022/01/04 07:09:30;;;;;;;13.15;9.27;;;;;;;4.58;100.00;62469.81;5105424;28;20258;-75
2022/01/04 07:11:59;;;;;;;16.67;9.10;;;;;;;4.51;100.00;62465.13;5106447;28;20211;-76
2022/01/04 07:14:25;;;;;;;10.30;7.22;;;;;;;4.58;100.00;62467.28;5106377;28;20536;-75
2022/01/04 07:16:52;;;;;;;11.80;7.60;;;;;;;4.68;100.00;62480.63;5106639;28;20233;-75
2022/01/04 07:19:19;;;;;;;13.30;8.18;;;;;;;4.78;100.00;62487.84;5104564;28;20220;-76
2022/01/04 07:21:46;;;;;;;14.50;9.25;;;;;;;4.90;100.00;62500.22;5106175;28;20501;-74
2022/01/04 07:24:12;;;;;;;17.33;10.13;;;;;;;5.01;100.00;62514.06;5104450;28;20232;-75
2022/01/04 07:26:39;;;;;;;14.80;10.50;;;;;;;5.19;100.00;62534.63;5104565;28;20208;-75
2022/01/04 07:29:07;;;;;;;15.55;10.75;;;;;;;5.26;99.83;62537.31;5098558;28;20235;-75
2022/01/04 07:31:34;;;;;;;20.60;10.52;;;;;;;5.38;99.31;62549.16;5104024;28;20197;-75
2022/01/04 07:34:01;;;;;;;10.30;7.90;;;;;;;5.45;99.33;62561.91;5106134;28;20268;-76
2022/01/04 07:36:30;;;;;;;12.48;8.68;;;;;;;5.53;99.77;62567.13;5104694;28;20203;-75
2022/01/04 07:38:57;;;;;;;15.80;9.07;;;;;;;5.56;98.73;62567.69;5105649;28;20451;-77
2022/01/04 07:41:24;;;;;;;15.32;9.95;;;;;;;5.56;98.08;62567.69;5102737;28;20228;-76
2022/01/04 07:43:51;;;;;;;17.58;10.68;;;;;;;5.63;98.26;62574.88;5104198;28;20228;-76
2022/01/04 07:46:19;;;;;;;18.85;9.13;;;;;;;5.75;98.53;62587.25;5099829;28;20233;-77
2022/01/04 07:48:47;;;;;;;18.08;11.68;;;;;;;5.88;98.54;62605.72;5101786;28;20216;-78
2022/01/04 07:51:13;;;;;;;19.10;10.57;;;;;;;5.56;99.66;62568.19;5088748;28;20204;-77
2022/01/04 07:53:41;;;;;;;22.65;11.63;;;;;;;5.65;100.00;62580.00;5106411;28;20220;-78
2022/01/04 07:56:07;;;;;;;22.85;12.45;;;;;;;5.77;100.00;62596.91;5103761;28;20485;-78
2022/01/04 07:58:34;;;;;;;27.88;13.23;;;;;;;5.72;100.00;62589.22;5106929;28;20507;-78
2022/01/04 08:01:01;;;;;;;24.48;12.98;;;;;;;5.44;100.00;62555.84;5106230;28;20279;-78
2022/01/04 08:03:29;;;;;;;29.70;14.38;;;;;;;5.21;100.00;62534.66;5103992;28;20227;-77
2022/01/04 08:05:56;;;;;;;26.00;14.23;;;;;;;5.13;100.00;62528.44;5103426;28;20374;-76
2022/01/04 08:08:23;;;;;;;23.48;15.07;;;;;;;5.00;100.00;62513.06;5106664;28;20220;-78
2022/01/04 08:10:51;;;;;;;26.92;14.40;;;;;;;5.03;100.00;62518.66;5106114;28;20219;-78
2022/01/04 08:13:18;;;;;;;25.70;14.63;;;;;;;5.09;100.00;62526.84;5101204;28;20212;-77
2022/01/04 08:15:45;;;;;;;25.77;14.60;;;;;;;4.78;100.00;62494.94;5105368;28;20335;-77
2022/01/04 08:18:11;;;;;;;31.33;13.90;;;;;;;4.74;100.00;62488.81;5105488;28;20218;-77
2022/01/04 08:20:40;;;;;;;24.92;15.52;;;;;;;4.62;100.00;62471.91;5103710;28;20295;-79
2022/01/04 08:23:06;;;;;;;21.20;14.18;;;;;;;4.72;100.00;62484.22;5090921;28;20210;-77
2022/01/04 08:25:33;;;;;;;24.17;14.80;;;;;;;4.67;100.00;62484.63;5103444;28;20200;-77
2022/01/04 08:28:00;;;;;;;27.75;15.07;;;;;;;4.85;100.00;62499.63;5103047;28;20196;-77
2022/01/04 08:30:27;;;;;;;23.38;16.17;;;;;;;4.61;100.00;62475.41;5103485;28;20207;-77
2022/01/04 08:32:54;;;;;;;29.10;15.82;;;;;;;4.89;100.00;62503.72;5103944;28;20473;-78
2022/01/04 08:35:22;;;;;;;24.38;15.43;;;;;;;5.08;100.00;62525.81;5103593;28;20196;-77
2022/01/04 08:37:50;;;;;;;21.73;15.25;;;;;;;5.26;100.00;62536.78;5105948;28;20207;-77
2022/01/04 08:40:17;;;;;;;21.55;13.60;;;;;;;5.36;100.00;62550.13;5105309;28;20231;-78
2022/01/04 08:42:44;;;;;;;25.20;14.93;;;;;;;5.43;100.00;62559.88;5103926;28;20200;-77
2022/01/04 08:45:11;;;;;;;19.40;13.10;;;;;;;5.49;100.00;62566.03;5105262;28;20264;-76
2022/01/04 08:47:38;;;;;;;22.38;13.68;;;;;;;5.58;100.00;62574.78;5105868;28;20196;-77
2022/01/04 08:50:08;;;;;;;25.13;14.05;;;;;;;5.56;100.00;62570.72;5097703;28;20219;-76
2022/01/04 08:52:34;;;;;;;23.83;13.73;;;;;;;5.61;100.00;62575.88;5110335;28;20489;-77
2022/01/04 08:55:03;;;;;;;25.38;14.07;;;;;;;5.38;100.00;62552.19;5112878;28;20282;-78
2022/01/04 08:57:30;;;;;;;29.13;15.65;;;;;;;5.04;100.00;62519.69;5106943;28;20489;-77
2022/01/04 08:59:57;;;;;;;34.63;15.77;;;;;;;5.11;100.00;62521.84;5106386;28;20212;-76
2022/01/04 09:02:24;;;;;;;23.88;15.75;;;;;;;4.85;100.00;62497.09;5104781;28;20200;-76
2022/01/04 09:04:51;;;;;;;31.17;15.52;;;;;;;5.11;100.00;62524.38;5109241;28;20228;-76
2022/01/04 09:07:18;;;;;;;23.42;16.15;;;;;;;5.32;100.00;62546.00;5098131;28;20205;-77
2022/01/04 09:09:45;;;;;;;34.85;15.73;;;;;;;5.38;100.00;62554.19;5101839;28;20215;-78
2022/01/04 09:12:14;;;;;;;30.10;16.73;;;;;;;5.25;100.00;62540.78;5101293;28;20203;-77
2022/01/04 09:14:54;;;;;;;36.05;16.80;;;;;;;5.36;100.00;62549.59;5099649;28;20254;-78
2022/01/04 09:20:09;;;;;;;22.40;15.85;;;;;;;5.53;100.00;62567.63;5098857;28;20223;-76
2022/01/04 09:22:37;;;;;;;29.75;16.52;;;;;;;5.44;100.00;62555.31;5098552;28;20566;-77
2022/01/04 09:25:05;;;;;;;33.83;18.05;;;;;;;5.56;100.00;62567.69;5097891;28;20540;-77
2022/01/04 09:27:33;;;;;;;31.75;17.13;;;;;;;5.53;100.00;62565.09;5100828;28;20204;-77
2022/01/04 09:30:03;;;;;;;26.88;17.35;;;;;;;5.73;100.00;62590.75;5102810;28;20262;-76
2022/01/04 09:32:31;;;;;;;20.00;15.38;;;;;;;5.92;100.00;62604.78;5095842;28;20200;-77
2022/01/04 09:34:58;;;;;;;31.25;17.15;;;;;;;6.13;100.00;62631.50;5102266;28;20223;-77
2022/01/04 09:37:25;;;;;;;29.10;16.65;;;;;;;6.26;100.00;62639.84;5100418;28;20195;-78
2022/01/04 09:39:52;;;;;;;28.55;17.52;;;;;;;6.50;100.00;62667.13;5103795;28;20216;-77
2022/01/04 09:42:20;;;;;;;25.52;16.05;;;;;;;6.75;100.00;62694.91;5101001;28;20228;-76
2022/01/04 09:44:49;;;;;;;32.13;16.58;;;;;;;6.53;99.83;62669.69;5100813;28;20220;-76
2022/01/04 09:47:16;;;;;;;29.23;16.60;;;;;;;6.68;100.00;62690.22;5103218;28;20257;-76
2022/01/04 09:49:43;;;;;;;29.08;16.92;;;;;;;6.57;100.00;62674.34;5104019;28;20216;-76
2022/01/04 09:52:10;;;;;;;27.83;17.92;;;;;;;6.46;100.00;62667.53;5101053;28;20237;-77
2022/01/04 09:54:39;;;;;;;42.45;18.25;;;;;;;6.44;100.00;62660.91;5100120;28;20467;-77
2022/01/04 09:57:06;;;;;;;28.80;17.60;;;;;;;6.53;100.00;62675.25;5102405;28;20208;-76
2022/01/04 09:59:33;;;;;;;34.88;17.23;;;;;;;6.52;99.91;62668.66;5100372;28;20520;-77
2022/01/04 10:02:14;;;;;;;28.20;16.33;;;;;;;6.57;99.38;62678.88;5098440;28;20567;-77
2022/01/04 10:04:41;;;;;;;21.98;15.07;;;;;;;6.71;98.83;62683.19;5103013;28;20558;-77
2022/01/04 10:07:09;;;;;;;25.10;15.05;;;;;;;6.77;96.74;62694.44;5097209;28;20507;-77
2022/01/04 10:09:44;;;;;;;21.90;14.32;;;;;;;6.86;95.51;62698.66;5093994;28;20239;-76
2022/01/04 10:12:12;;;;;;;23.33;13.73;;;;;;;6.92;94.57;62712.44;5099470;28;20229;-77
2022/01/04 10:14:43;;;;;;;23.55;13.52;;;;;;;7.00;93.67;62716.16;5099429;28;20220;-78
2022/01/04 10:17:13;;;;;;;20.98;12.73;;;;;;;7.31;93.78;62752.16;5101478;28;20220;-77
2022/01/04 10:19:43;;;;;;;18.30;12.52;;;;;;;7.53;90.94;62772.84;5103562;28;20454;-77
2022/01/04 10:22:15;;;;;;;21.63;14.52;;;;;;;7.39;90.23;62757.88;5104809;28;20219;-77
2022/01/04 10:24:43;;;;;;;22.27;13.88;;;;;;;7.42;90.73;62761.50;5104658;28;20220;-77
2022/01/04 10:27:26;;;;;;;29.63;14.45;;;;;;;7.54;90.08;62775.91;5102825;28;20211;-77
2022/01/04 10:30:14;;;;;;;21.08;13.50;;;;;;;7.62;88.03;62786.69;5103782;28;20212;-77
2022/01/04 10:32:46;;;;;;;17.27;13.43;;;;;;;7.48;87.08;62770.22;5104109;28;20373;-77
2022/01/04 10:35:23;;;;;;;31.23;14.75;;;;;;;7.69;86.92;62789.38;5100750;28;20224;-76
2022/01/04 10:37:50;;;;;;;20.35;14.18;;;;;;;7.96;87.21;62819.78;5104148;28;20191;-78
2022/01/04 10:40:17;;;;;;;19.90;14.38;;;;;;;8.02;84.84;62823.44;5103874;28;20474;-79
2022/01/04 10:42:44;;;;;;;19.52;13.90;;;;;;;8.01;85.24;62824.41;5103952;28;20232;-77
2022/01/04 10:45:29;;;;;;;22.77;14.57;;;;;;;8.17;84.24;62841.47;5102300;28;20228;-77
2022/01/04 10:47:57;;;;;;;24.63;14.65;;;;;;;8.16;84.20;62834.84;5104127;28;20317;-76
2022/01/04 10:50:34;;;;;;;26.17;15.48;;;;;;;8.30;83.84;62849.31;5100096;28;20230;-77
2022/01/04 10:53:01;;;;;;;21.42;15.15;;;;;;;8.41;81.99;62865.25;5098881;28;20207;-78
2022/01/04 10:55:32;;;;;;;25.45;15.13;;;;;;;8.58;81.42;62883.31;5100740;28;20205;-77
2022/01/04 10:58:00;;;;;;;24.08;15.32;;;;;;;8.69;80.82;62892.16;5100984;28;20201;-77
2022/01/04 11:00:28;;;;;;;23.15;13.93;;;;;;;8.64;79.08;62884.44;5102644;28;20237;-77
2022/01/04 11:02:57;;;;;;;19.00;13.18;;;;;;;8.50;79.64;62874.53;5104926;28;22158;-77
2022/01/04 11:05:26;;;;;;;20.38;12.93;;;;;;;8.55;78.90;62877.16;5104016;28;20496;-77
2022/01/04 11:08:02;;;;;;;19.20;13.10;;;;;;;8.48;78.50;62869.94;5103446;28;20519;-76
2022/01/04 11:10:32;;;;;;;16.20;12.65;;;;;;;8.52;79.45;62876.59;5102857;28;20220;-77
2022/01/04 11:13:00;;;;;;;21.98;13.02;;;;;;;8.51;79.50;62878.63;5104590;28;20427;-77
2022/01/04 11:15:27;;;;;;;18.40;12.63;;;;;;;8.45;80.20;62867.34;5098988;28;20229;-76
2022/01/04 11:17:54;;;;;;;20.02;13.02;;;;;;;8.41;80.84;62865.25;5103221;28;20196;-78
2022/01/04 11:20:22;;;;;;;17.65;13.57;;;;;;;8.68;79.64;62893.66;5103735;28;20197;-77
2022/01/04 11:22:56;;;;;;;15.65;12.18;;;;;;;8.60;80.52;62882.31;5110170;28;20239;-76
2022/01/04 11:25:25;;;;;;;16.33;12.65;;;;;;;8.82;80.28;62905.06;5112183;28;20196;-76
2022/01/04 11:27:54;;;;;;;16.00;12.40;;;;;;;9.00;80.38;62921.66;5105453;28;20196;-77
2022/01/04 11:30:26;;;;;;;16.45;11.73;;;;;;;9.02;79.01;62930.81;5112029;28;20195;-76
2022/01/04 11:32:58;;;;;;;21.00;12.75;;;;;;;8.98;78.85;62922.13;5104660;28;20211;-77
2022/01/04 11:35:26;;;;;;;18.73;11.63;;;;;;;9.16;78.14;62945.78;5104282;28;20211;-79
2022/01/04 11:37:54;;;;;;;15.63;12.27;;;;;;;9.32;77.87;62957.25;5104087;28;20212;-77
2022/01/04 11:40:24;;;;;;;17.35;10.93;;;;;;;9.31;77.01;62955.72;5104200;28;20410;-77
2022/01/04 11:42:52;;;;;;;11.68;9.88;;;;;;;9.33;76.84;62955.75;5103747;28;20295;-76